createdAt,value
2023-03-14T00:01:30.693Z,3.05
2023-03-14T00:04:00.764Z,3.00
2023-03-14T00:06:29.942Z,3.00
2023-03-14T00:08:59.580Z,2.97
2023-03-14T00:11:28.179Z,2.88
2023-03-14T00:13:57.414Z,3.03
2023-03-14T00:16:25.962Z,3.00
2023-03-14T00:18:54.682Z,3.05
2023-03-14T00:21:23.078Z,2.83
2023-03-14T00:23:51.794Z,3.33
2023-03-14T00:26:22.348Z,2.92
2023-03-14T00:28:55.454Z,3.00
2023-03-14T00:31:24.522Z,3.13
2023-03-14T00:33:55.257Z,2.80
2023-03-14T00:36:24.377Z,2.72
2023-03-14T00:38:53.688Z,3.30
2023-03-14T00:41:24.961Z,3.05
2023-03-14T00:43:53.917Z,2.85
2023-03-14T00:46:22.384Z,3.00
2023-03-14T00:48:51.078Z,3.08
2023-03-14T00:51:19.448Z,3.00
2023-03-14T00:53:48.523Z,3.58
2023-03-14T00:56:17.043Z,3.20
2023-03-14T00:58:45.267Z,3.28
2023-03-14T01:01:20.424Z,3.20
2023-03-14T01:03:52.710Z,3.40
2023-03-14T01:06:27.856Z,3.40
2023-03-14T01:08:58.190Z,3.30
2023-03-14T01:11:33.770Z,2.97
2023-03-14T01:14:03.402Z,3.40
2023-03-14T01:16:35.630Z,3.28
2023-03-14T01:19:05.023Z,3.20
2023-03-14T01:21:35.453Z,2.78
2023-03-14T01:24:07.016Z,2.70
2023-03-14T01:26:36.927Z,2.30
2023-03-14T01:29:07.365Z,2.47
2023-03-14T01:31:38.153Z,2.42
2023-03-14T01:34:07.402Z,2.45
2023-03-14T01:36:37.021Z,2.50
2023-03-14T01:39:11.632Z,2.20
2023-03-14T01:41:40.438Z,2.40
2023-03-14T01:44:13.516Z,2.00
2023-03-14T01:46:49.777Z,2.20
2023-03-14T01:49:31.458Z,2.35
2023-03-14T01:52:33.324Z,2.00
2023-03-14T01:55:11.656Z,2.03
2023-03-14T01:57:49.858Z,2.10
2023-03-14T02:00:22.534Z,2.08
2023-03-14T02:03:07.019Z,2.17
2023-03-14T02:08:17.383Z,2.05
2023-03-14T02:10:52.851Z,2.00
2023-03-14T02:13:29.689Z,2.00
2023-03-14T02:16:17.149Z,2.10
2023-03-14T02:19:06.574Z,2.03
2023-03-14T02:22:13.158Z,1.88
2023-03-14T02:25:12.208Z,1.92
2023-03-14T02:27:41.297Z,2.10
2023-03-14T02:30:24.753Z,2.30
2023-03-14T02:33:05.317Z,2.03
2023-03-14T02:35:47.109Z,2.28
2023-03-14T02:38:42.133Z,2.22
2023-03-14T02:41:11.540Z,2.28
2023-03-14T02:43:46.356Z,2.25
2023-03-14T02:46:20.314Z,2.15
2023-03-14T02:49:12.059Z,2.22
2023-03-14T02:51:43.575Z,2.40
2023-03-14T02:54:12.833Z,2.42
2023-03-14T02:56:41.626Z,2.20
2023-03-14T02:59:14.158Z,2.35
2023-03-14T03:01:51.486Z,2.40
2023-03-14T03:04:20.312Z,2.25
2023-03-14T03:06:49.184Z,2.13
2023-03-14T03:09:19.509Z,2.25
2023-03-14T03:11:48.362Z,2.00
2023-03-14T03:14:21.524Z,1.80
2023-03-14T03:16:51.231Z,2.00
2023-03-14T03:19:21.564Z,2.10
2023-03-14T03:21:49.961Z,2.00
2023-03-14T03:24:19.428Z,1.90
2023-03-14T03:26:47.982Z,2.10
2023-03-14T03:29:16.593Z,2.00
2023-03-14T03:31:47.155Z,1.90
2023-03-14T03:34:16.178Z,2.10
2023-03-14T03:36:45.090Z,1.95
2023-03-14T03:39:15.335Z,2.00
2023-03-14T03:41:45.185Z,2.00
2023-03-14T03:44:14.529Z,2.20
2023-03-14T03:46:43.842Z,2.15
2023-03-14T03:49:12.656Z,2.20
2023-03-14T03:51:42.419Z,2.10
2023-03-14T03:54:14.277Z,2.20
2023-03-14T03:56:43.607Z,2.20
2023-03-14T03:59:12.409Z,1.77
2023-03-14T04:01:41.784Z,1.92
2023-03-14T04:04:12.597Z,1.73
2023-03-14T04:06:43.713Z,2.00
2023-03-14T04:09:13.492Z,2.10
2023-03-14T04:11:49.815Z,1.83
2023-03-14T04:14:21.996Z,2.05
2023-03-14T04:17:00.964Z,2.33
2023-03-14T04:19:31.383Z,2.00
2023-03-14T04:22:01.568Z,2.00
2023-03-14T04:24:36.295Z,1.85
2023-03-14T04:27:05.515Z,1.90
2023-03-14T04:29:35.619Z,2.08
2023-03-14T04:32:04.913Z,1.85
2023-03-14T04:34:33.864Z,2.00
2023-03-14T04:37:03.908Z,1.90
2023-03-14T04:39:39.289Z,1.95
2023-03-14T04:42:18.007Z,2.05
2023-03-14T04:44:51.617Z,2.03
2023-03-14T04:47:24.108Z,1.90
2023-03-14T04:49:53.789Z,2.00
2023-03-14T04:52:25.216Z,1.88
2023-03-14T04:54:53.741Z,1.80
2023-03-14T04:57:25.045Z,2.10
2023-03-14T04:59:58.366Z,1.95
2023-03-14T05:02:47.711Z,1.60
2023-03-14T05:05:35.454Z,2.30
2023-03-14T05:08:39.771Z,2.10
2023-03-14T05:11:30.156Z,2.00
2023-03-14T05:14:22.000Z,2.08
2023-03-14T05:17:18.638Z,2.00
2023-03-14T05:20:18.026Z,1.92
2023-03-14T05:23:13.236Z,1.80
2023-03-14T05:25:58.418Z,1.80
2023-03-14T05:28:41.750Z,2.10
2023-03-14T05:31:33.702Z,2.10
2023-03-14T05:34:28.579Z,2.10
2023-03-14T05:37:29.126Z,2.20
2023-03-14T05:40:19.513Z,2.30
2023-03-14T05:43:09.793Z,2.20
2023-03-14T05:45:59.887Z,2.22
2023-03-14T05:48:49.471Z,2.08
2023-03-14T05:51:45.852Z,2.15
2023-03-14T05:54:40.579Z,2.15
2023-03-14T05:57:21.200Z,2.10
2023-03-14T06:00:07.822Z,1.90
2023-03-14T06:02:49.755Z,1.90
2023-03-14T06:05:25.019Z,2.10
2023-03-14T06:10:33.032Z,2.00
2023-03-14T06:13:01.993Z,2.10
2023-03-14T06:15:32.014Z,2.00
2023-03-14T06:18:01.426Z,2.10
2023-03-14T06:20:32.678Z,2.20
2023-03-14T06:23:03.290Z,2.10
2023-03-14T06:25:35.113Z,1.85
2023-03-14T06:28:05.352Z,2.00
2023-03-14T06:30:35.926Z,2.08
2023-03-14T06:33:06.052Z,2.20
2023-03-14T06:35:36.438Z,1.75
2023-03-14T06:38:05.668Z,1.98
2023-03-14T06:40:35.723Z,2.10
2023-03-14T06:43:13.685Z,1.90
2023-03-14T06:45:45.671Z,1.92
2023-03-14T06:48:15.681Z,2.10
2023-03-14T06:50:53.456Z,2.05
2023-03-14T06:53:24.813Z,2.13
2023-03-14T06:55:53.976Z,2.00
2023-03-14T06:58:23.540Z,2.00
2023-03-14T07:00:52.594Z,1.90
2023-03-14T07:03:26.201Z,1.90
2023-03-14T07:05:58.204Z,2.03
2023-03-14T07:08:29.169Z,2.00
2023-03-14T07:10:59.892Z,2.17
2023-03-14T07:13:31.371Z,2.10
2023-03-14T07:16:05.946Z,1.83
2023-03-14T07:18:35.817Z,2.28
2023-03-14T07:21:09.210Z,2.20
2023-03-14T07:23:40.974Z,1.88
2023-03-14T07:26:10.228Z,1.95
2023-03-14T07:28:45.960Z,2.20
2023-03-14T07:31:20.202Z,2.13
2023-03-14T07:33:49.526Z,1.98
2023-03-14T07:36:19.783Z,2.00
2023-03-14T07:38:49.559Z,1.95
2023-03-14T07:41:25.246Z,2.20
2023-03-14T07:44:23.589Z,2.03
2023-03-14T07:46:52.758Z,2.30
2023-03-14T07:49:23.133Z,2.15
2023-03-14T07:51:52.770Z,2.20
2023-03-14T07:54:22.342Z,2.30
2023-03-14T07:56:51.717Z,2.10
2023-03-14T07:59:21.773Z,2.05
2023-03-14T08:01:51.660Z,2.13
2023-03-14T08:04:20.956Z,2.20
2023-03-14T08:06:50.143Z,2.10
2023-03-14T08:09:19.775Z,2.10
2023-03-14T08:11:48.630Z,2.35
2023-03-14T08:14:17.588Z,2.00
2023-03-14T08:16:49.245Z,2.10
2023-03-14T08:19:17.887Z,2.20
2023-03-14T08:21:47.893Z,2.22
2023-03-14T08:24:17.714Z,2.00
2023-03-14T08:26:45.907Z,1.98
2023-03-14T08:29:15.973Z,2.00
2023-03-14T08:31:45.475Z,2.20
2023-03-14T08:34:14.086Z,2.00
2023-03-14T08:36:47.693Z,2.10
2023-03-14T08:39:17.503Z,2.00
2023-03-14T08:41:46.066Z,1.98
2023-03-14T08:44:18.990Z,2.28
2023-03-14T08:46:49.554Z,1.88
2023-03-14T08:49:18.341Z,2.17
2023-03-14T08:51:49.371Z,2.10
2023-03-14T08:54:21.541Z,2.20
2023-03-14T08:56:50.069Z,2.08
2023-03-14T08:59:20.947Z,2.08
2023-03-14T09:01:49.859Z,2.00
2023-03-14T09:04:19.878Z,1.85
2023-03-14T09:06:49.838Z,1.92
2023-03-14T09:09:19.364Z,2.28
2023-03-14T09:11:48.829Z,1.92
2023-03-14T09:14:18.190Z,2.20
2023-03-14T09:16:48.173Z,1.98
2023-03-14T09:19:18.702Z,2.00
2023-03-14T09:21:49.205Z,2.17
2023-03-14T09:24:20.414Z,2.08
2023-03-14T09:26:50.380Z,2.30
2023-03-14T09:29:21.204Z,2.20
2023-03-14T09:31:50.334Z,2.08
2023-03-14T09:34:24.492Z,2.17
2023-03-14T09:36:53.567Z,1.90
2023-03-14T09:39:22.335Z,1.95
2023-03-14T09:41:56.714Z,1.95
2023-03-14T09:44:34.211Z,2.35
2023-03-14T09:47:11.966Z,2.20
2023-03-14T09:49:42.980Z,1.98
2023-03-14T09:52:33.116Z,1.90
2023-03-14T09:55:06.453Z,2.00
2023-03-14T09:57:37.704Z,2.13
2023-03-14T10:00:24.490Z,1.88
2023-03-14T10:03:04.021Z,2.13
2023-03-14T10:05:33.545Z,2.00
2023-03-14T10:08:03.710Z,2.15
2023-03-14T10:10:33.451Z,2.00
2023-03-14T10:13:25.727Z,1.95
2023-03-14T10:16:02.069Z,1.85
2023-03-14T10:21:18.401Z,2.15
2023-03-14T10:23:49.981Z,1.80
2023-03-14T10:26:34.873Z,1.95
2023-03-14T10:29:13.721Z,1.55
2023-03-14T10:31:54.263Z,1.80
2023-03-14T10:34:29.092Z,2.10
2023-03-14T10:37:01.566Z,2.00
2023-03-14T10:39:34.198Z,1.92
2023-03-14T10:42:33.410Z,1.80
2023-03-14T10:45:21.773Z,1.90
2023-03-14T10:47:53.214Z,1.77
2023-03-14T10:50:33.621Z,1.75
2023-03-14T10:53:09.576Z,1.90
2023-03-14T10:58:31.739Z,1.90
2023-03-14T11:01:12.176Z,1.83
2023-03-14T11:03:45.815Z,1.92
2023-03-14T11:06:26.129Z,1.80
2023-03-14T11:09:34.335Z,1.90
2023-03-14T11:12:22.372Z,2.00
2023-03-14T11:15:22.650Z,1.77
2023-03-14T11:18:46.228Z,1.75
2023-03-14T11:21:22.422Z,1.55
2023-03-14T11:24:25.247Z,1.70
2023-03-14T11:27:14.486Z,1.70
2023-03-14T11:30:06.485Z,1.63
2023-03-14T11:32:48.063Z,1.70
2023-03-14T11:35:32.523Z,1.70
2023-03-14T11:38:22.123Z,1.70
2023-03-14T11:40:53.704Z,1.95
2023-03-14T11:43:34.137Z,1.50
2023-03-14T11:46:10.258Z,1.50
2023-03-14T11:48:49.685Z,1.52
2023-03-14T11:51:48.048Z,1.50
2023-03-14T11:54:40.072Z,1.60
2023-03-14T11:57:19.822Z,1.30
2023-03-14T11:59:54.446Z,1.60
2023-03-14T12:02:50.889Z,1.48
2023-03-14T12:05:26.305Z,1.65
2023-03-14T12:08:13.035Z,1.60
2023-03-14T12:11:00.008Z,1.55
2023-03-14T12:13:39.866Z,1.60
2023-03-14T12:16:39.617Z,1.33
2023-03-14T12:19:38.146Z,1.52
2023-03-14T12:22:08.178Z,1.50
2023-03-14T12:24:40.341Z,1.50
2023-03-14T12:27:35.978Z,1.48
2023-03-14T12:32:41.963Z,1.38
2023-03-14T12:35:41.395Z,1.38
2023-03-14T12:38:38.308Z,1.50
2023-03-14T12:41:17.720Z,1.60
2023-03-14T12:43:46.793Z,1.40
2023-03-14T12:46:29.534Z,1.60
2023-03-14T12:49:05.617Z,1.10
2023-03-14T12:51:49.428Z,1.40
2023-03-14T12:54:37.191Z,1.40
2023-03-14T12:57:17.046Z,1.30
2023-03-14T12:59:49.617Z,1.20
2023-03-14T13:02:43.133Z,1.50
2023-03-14T13:05:22.032Z,1.60
2023-03-14T13:07:52.315Z,1.33
2023-03-14T13:10:29.316Z,1.50
2023-03-14T13:13:04.004Z,1.40
2023-03-14T13:15:37.794Z,1.17
2023-03-14T13:18:26.237Z,1.10
2023-03-14T13:21:20.481Z,1.40
2023-03-14T13:24:04.558Z,1.30
2023-03-14T13:26:42.239Z,1.30
2023-03-14T13:29:29.472Z,1.20
2023-03-14T13:32:02.152Z,1.00
2023-03-14T13:34:36.257Z,1.33
2023-03-14T13:37:05.506Z,1.30
2023-03-14T13:39:34.613Z,1.30
2023-03-14T13:42:05.250Z,1.63
2023-03-14T13:44:41.393Z,1.50
2023-03-14T13:47:31.536Z,1.30
2023-03-14T13:50:01.495Z,1.30
2023-03-14T13:52:40.062Z,1.30
2023-03-14T13:55:18.412Z,1.30
2023-03-14T13:57:58.448Z,1.30
2023-03-14T14:00:32.097Z,1.30
2023-03-14T14:03:05.702Z,1.25
2023-03-14T14:05:40.090Z,1.30
2023-03-14T14:08:09.320Z,1.42
2023-03-14T14:10:40.002Z,1.50
2023-03-14T14:13:22.556Z,1.50
2023-03-14T14:15:58.505Z,1.38
2023-03-14T14:18:35.901Z,1.30
2023-03-14T14:21:05.872Z,1.48
2023-03-14T14:23:37.800Z,1.20
2023-03-14T14:26:09.371Z,1.23
2023-03-14T14:28:40.286Z,1.52
2023-03-14T14:31:26.742Z,1.48
2023-03-14T14:34:06.344Z,1.30
2023-03-14T14:36:44.056Z,1.30
2023-03-14T14:39:23.956Z,1.42
2023-03-14T14:41:54.729Z,1.63
2023-03-14T14:44:37.770Z,1.40
2023-03-14T14:47:08.364Z,1.30
2023-03-14T14:49:37.987Z,1.48
2023-03-14T14:52:20.353Z,1.60
2023-03-14T14:55:00.384Z,1.40
2023-03-14T14:57:37.798Z,1.20
2023-03-14T15:00:13.945Z,1.50
2023-03-14T15:02:55.468Z,1.45
2023-03-14T15:05:29.060Z,1.33
2023-03-14T15:08:00.053Z,1.40
2023-03-14T15:10:30.414Z,1.30
2023-03-14T15:13:04.229Z,1.20
2023-03-14T15:15:34.465Z,1.38
2023-03-14T15:18:03.903Z,1.20
2023-03-14T15:20:33.302Z,1.30
2023-03-14T15:23:01.760Z,1.20
2023-03-14T15:25:51.796Z,1.35
2023-03-14T15:28:24.479Z,1.20
2023-03-14T15:31:00.362Z,1.40
2023-03-14T15:33:31.379Z,1.50
2023-03-14T15:36:02.353Z,1.58
2023-03-14T15:38:32.040Z,1.40
2023-03-14T15:41:01.761Z,1.40
2023-03-14T15:43:32.022Z,1.50
2023-03-14T15:46:01.938Z,1.38
2023-03-14T15:48:34.460Z,1.30
2023-03-14T15:51:04.143Z,1.50
2023-03-14T15:53:33.183Z,1.20
2023-03-14T15:56:02.154Z,1.58
2023-03-14T15:58:36.196Z,1.35
2023-03-14T16:01:05.895Z,1.48
2023-03-14T16:03:36.250Z,1.40
2023-03-14T16:06:06.992Z,1.35
2023-03-14T16:08:36.451Z,1.30
2023-03-14T16:11:05.461Z,1.48
2023-03-14T16:13:34.263Z,1.20
2023-03-14T16:16:05.853Z,1.52
2023-03-14T16:18:38.339Z,1.33
2023-03-14T16:21:18.319Z,1.40
2023-03-14T16:23:49.640Z,1.40
2023-03-14T16:26:23.114Z,1.60
2023-03-14T16:29:00.351Z,1.20
2023-03-14T16:31:30.578Z,1.48
2023-03-14T16:34:08.050Z,1.40
2023-03-14T16:36:39.085Z,1.27
2023-03-14T16:39:10.171Z,1.38
2023-03-14T16:41:40.163Z,1.30
2023-03-14T16:44:09.347Z,1.35
2023-03-14T16:46:38.523Z,1.33
2023-03-14T16:49:08.783Z,1.30
2023-03-14T16:51:38.845Z,1.23
2023-03-14T16:54:09.222Z,1.40
2023-03-14T16:56:38.609Z,1.30
2023-03-14T16:59:09.145Z,1.38
2023-03-14T17:01:38.646Z,1.50
2023-03-14T17:04:09.874Z,1.23
2023-03-14T17:06:41.125Z,1.50
2023-03-14T17:09:10.222Z,1.20
2023-03-14T17:11:40.316Z,1.27
2023-03-14T17:14:09.132Z,1.48
2023-03-14T17:16:40.243Z,1.30
2023-03-14T17:19:10.136Z,1.52
2023-03-14T17:21:40.583Z,1.60
2023-03-14T17:24:09.916Z,1.40
2023-03-14T17:26:38.459Z,1.45
2023-03-14T17:29:08.040Z,1.42
2023-03-14T17:31:37.882Z,1.27
2023-03-14T17:34:06.526Z,1.38
2023-03-14T17:36:36.148Z,1.17
2023-03-14T17:39:05.749Z,1.30
2023-03-14T17:41:34.895Z,1.42
2023-03-14T17:44:04.753Z,1.40
2023-03-14T17:46:34.517Z,1.30
2023-03-14T17:49:05.452Z,1.50
2023-03-14T17:51:36.724Z,1.30
2023-03-14T17:54:05.773Z,1.48
2023-03-14T17:56:34.229Z,1.40
2023-03-14T17:59:05.272Z,1.40
2023-03-14T18:01:34.502Z,1.40
2023-03-14T18:04:05.615Z,1.38
2023-03-14T18:06:34.624Z,1.27
2023-03-14T18:09:06.401Z,1.20
2023-03-14T18:11:37.027Z,1.13
2023-03-14T18:14:09.159Z,1.33
2023-03-14T18:16:38.960Z,1.30
2023-03-14T18:19:09.677Z,1.20
2023-03-14T18:21:41.488Z,1.27
2023-03-14T18:24:11.402Z,1.38
2023-03-14T18:26:40.460Z,1.33
2023-03-14T18:29:09.657Z,1.20
2023-03-14T18:31:38.534Z,1.30
2023-03-14T18:34:08.317Z,1.30
2023-03-14T18:36:37.931Z,1.40
2023-03-14T18:39:08.497Z,1.40
2023-03-14T18:41:38.220Z,1.48
2023-03-14T18:44:07.995Z,1.20
2023-03-14T18:46:37.909Z,1.27
2023-03-14T18:49:06.618Z,1.05
2023-03-14T18:51:38.099Z,1.30
2023-03-14T18:54:10.336Z,1.35
2023-03-14T18:56:43.980Z,1.35
2023-03-14T18:59:14.288Z,0.82
2023-03-14T19:01:44.945Z,1.20
2023-03-14T19:04:14.058Z,1.17
2023-03-14T19:06:45.454Z,1.40
2023-03-14T19:09:17.744Z,1.40
2023-03-14T19:11:48.207Z,1.30
2023-03-14T19:14:21.877Z,1.00
2023-03-14T19:19:22.197Z,1.38
2023-03-14T19:21:52.373Z,1.42
2023-03-14T19:24:24.534Z,1.20
2023-03-14T19:26:54.909Z,1.40
2023-03-14T19:29:25.337Z,1.33
2023-03-14T19:31:55.223Z,1.20
2023-03-14T19:34:25.502Z,1.40
2023-03-14T19:36:55.348Z,1.02
2023-03-14T19:39:26.614Z,1.30
2023-03-14T19:42:00.171Z,1.20
2023-03-14T19:44:30.400Z,1.15
2023-03-14T19:47:02.118Z,1.20
2023-03-14T19:49:33.213Z,1.25
2023-03-14T19:52:02.614Z,1.13
2023-03-14T19:54:32.946Z,1.40
2023-03-14T19:57:07.881Z,1.27
2023-03-14T19:59:37.291Z,1.20
2023-03-14T20:02:06.547Z,1.10
2023-03-14T20:04:36.092Z,1.20
2023-03-14T20:07:05.593Z,1.27
2023-03-14T20:09:34.783Z,1.40
2023-03-14T20:12:04.161Z,1.23
2023-03-14T20:14:33.436Z,1.38
2023-03-14T20:17:03.107Z,1.20
2023-03-14T20:19:33.180Z,1.20
2023-03-14T20:22:03.974Z,1.30
2023-03-14T20:24:33.549Z,1.13
2023-03-14T20:27:02.813Z,1.30
2023-03-14T20:29:32.096Z,1.33
2023-03-14T20:32:01.337Z,1.30
2023-03-14T20:34:33.262Z,1.30
2023-03-14T20:37:03.927Z,1.20
2023-03-14T20:39:35.969Z,1.20
2023-03-14T20:42:05.886Z,1.35
2023-03-14T20:44:34.355Z,1.33
2023-03-14T20:47:04.780Z,1.30
2023-03-14T20:49:34.083Z,1.38
2023-03-14T20:52:04.136Z,1.23
2023-03-14T20:54:34.357Z,1.60
2023-03-14T20:57:04.626Z,1.48
2023-03-14T20:59:34.058Z,1.48
2023-03-14T21:07:17.796Z,1.30
2023-03-14T21:09:46.294Z,1.40
2023-03-14T21:12:16.382Z,1.50
2023-03-14T21:14:46.699Z,1.35
2023-03-14T21:17:16.872Z,1.30
2023-03-14T21:19:46.529Z,1.52
2023-03-14T21:22:18.909Z,1.30
2023-03-14T21:24:48.613Z,1.30
2023-03-14T21:27:17.545Z,1.30
2023-03-14T21:29:46.684Z,1.42
2023-03-14T21:32:16.549Z,1.30
2023-03-14T21:34:49.264Z,1.50
2023-03-14T21:37:18.303Z,1.35
2023-03-14T21:39:47.912Z,1.60
2023-03-14T21:42:16.997Z,1.40
2023-03-14T21:44:49.217Z,1.40
2023-03-14T21:47:18.742Z,1.30
2023-03-14T21:49:48.019Z,1.45
2023-03-14T21:52:17.163Z,1.25
2023-03-14T21:54:46.293Z,1.55
2023-03-14T21:57:17.170Z,1.30
2023-03-14T21:59:47.686Z,1.30
2023-03-14T22:02:19.404Z,1.30
2023-03-14T22:04:48.155Z,1.50
2023-03-14T22:07:19.002Z,1.45
2023-03-14T22:09:50.434Z,1.40
2023-03-14T22:12:20.098Z,1.40
2023-03-14T22:14:50.122Z,1.27
2023-03-14T22:17:21.488Z,1.30
2023-03-14T22:19:50.031Z,1.40
2023-03-14T22:22:20.291Z,1.42
2023-03-14T22:24:49.149Z,1.42
2023-03-14T22:27:18.640Z,1.48
2023-03-14T22:29:48.068Z,1.30
2023-03-14T22:32:16.738Z,1.50
2023-03-14T22:34:45.578Z,1.38
2023-03-14T22:37:17.714Z,1.50
2023-03-14T22:39:50.439Z,1.50
2023-03-14T22:42:20.348Z,1.20
2023-03-14T22:44:53.786Z,1.50
2023-03-14T22:47:22.519Z,1.38
2023-03-14T22:49:52.211Z,1.30
2023-03-14T22:52:21.638Z,1.60
2023-03-14T22:54:50.660Z,1.60
2023-03-14T22:57:21.343Z,1.50
2023-03-14T22:59:50.646Z,1.50
2023-03-14T23:02:20.331Z,1.50
2023-03-14T23:04:50.043Z,1.25
2023-03-14T23:07:18.653Z,1.05
2023-03-14T23:09:48.298Z,1.55
2023-03-14T23:12:18.090Z,1.40
2023-03-14T23:14:49.602Z,1.50
2023-03-14T23:17:20.265Z,1.60
2023-03-14T23:19:50.227Z,1.70
2023-03-14T23:22:20.210Z,1.50
2023-03-14T23:24:49.862Z,1.55
2023-03-14T23:27:18.714Z,1.50
2023-03-14T23:29:48.890Z,1.58
2023-03-14T23:32:17.759Z,1.40
2023-03-14T23:34:46.514Z,1.48
2023-03-14T23:37:16.042Z,1.50
2023-03-14T23:39:48.064Z,1.60
2023-03-14T23:42:17.826Z,1.50
2023-03-14T23:44:46.121Z,1.42
2023-03-14T23:47:16.241Z,1.40
2023-03-14T23:49:46.026Z,1.73
2023-03-14T23:52:14.698Z,1.50
2023-03-14T23:54:44.203Z,1.58
2023-03-14T23:57:14.203Z,1.75
2023-03-14T23:59:43.949Z,1.65
